This demonstration page uses our WeatherBlox Daily Observations layout. Learn more.

Left ArrowRight Arrow

39.08367, -84.50855

Hourly Observations for March 16, 2019

Temp ( °F °C ) Dew Point ( °F °C ) Humidity (%) Winds ( mph kmh ) Pressure ( in mb ) Visibility ( mi km ) Precip ( " mm )
12:53 am 00:53 Mostly Clear N/A N/A N/A undefined N/A N/A N/A N/A
1:53 am 01:53 Mostly Clear N/A N/A N/A undefined N/A N/A N/A N/A
2:53 am 02:53 Partly Cloudy 36 2.2 28 -2.2 73 73 N N/A N/A 10 16 N/A
3:53 am 03:53 Mostly Cloudy 35 1.7 28 -2.2 76 76 N N/A N/A 10 16 N/A
4:53 am 04:53 Clear 34 1.1 27 -2.8 76 76 N N/A N/A 10 16 N/A
5:53 am 05:53 Clear 33 0.6 26 -3.3 75 75 N N/A N/A 10 16 N/A
6:53 am 06:53 Clear 33 0.6 25 -3.9 72 72 WSW 6 9 30.33 1027 10 16 N/A
7:53 am 07:53 Sunny 33 0.6 24 -4.4 70 70 WSW 8 13 30.35 1028 10 16 N/A
8:53 am 08:53 Sunny 35 1.7 25 -3.9 67 67 W 12 19 30.36 1028 10 16 N/A
9:53 am 09:53 Mostly Sunny 37 2.8 24 -4.4 59 59 VRB 7 11 30.37 1029 10 16 N/A
10:53 am 10:53 Sunny 39 3.9 23 -5 53 53 VRB 7 11 30.39 1029 10 16 N/A
11:53 am 11:53 Sunny 41 5 25 -3.9 53 53 W 9 15 30.40 1030 10 16 N/A
12:53 pm 12:53 Sunny 43 6.1 24 -4.4 47 47 W 7 11 30.38 1029 10 16 N/A
1:53 pm 13:53 Mostly Sunny 44 6.7 24 -4.4 45 45 SW 9 15 30.36 1028 10 16 N/A
2:53 pm 14:53 Sunny 46 7.8 22 -5.6 38 38 W 12 19 30.36 1028 10 16 N/A
3:53 pm 15:53 Partly Cloudy 47 8.3 23 -5 39 39 W 14 22 30.34 1027 10 16 N/A
4:53 pm 16:53 Mostly Sunny 45 7.2 20 -6.7 37 37 W 8 13 30.32 1027 10 16 N/A
5:53 pm 17:53 Partly Cloudy 46 7.8 22 -5.6 38 38 W 12 19 30.32 1027 10 16 N/A
6:53 pm 18:53 Mostly Sunny 45 7.2 20 -6.7 37 37 WNW 9 15 30.32 1027 10 16 N/A
7:53 pm 19:53 Mostly Clear 42 5.6 20 -6.7 41 41 VRB 7 11 30.32 1027 10 16 N/A
8:53 pm 20:53 Clear 41 5 20 -6.7 43 43 VRB 5 7 30.33 1027 10 16 N/A
9:53 pm 21:53 Clear 37 2.8 22 -5.6 54 54 N 6 9 30.34 1028 10 16 N/A
10:53 pm 22:53 Clear 35 1.7 27 -2.8 72 72 N N/A 30.34 1028 10 16 N/A
11:53 pm 23:53 Clear 33 0.6 26 -3.3 75 75 N N/A 30.35 1028 10 16 N/A

Powered by AerisWeather